Portlethen, United Kingdom
Current Conditions -  °F | °C
As of 11:50 AM on Thursday 23 Oct 2014 (Local Time) from EGPD Reporting Station
Scattered Clouds Scattered Clouds  
Wind Chill: 55°   Ceiling: Unl
Heat Index: 55°   Visibility: 6mi
Dew Point: 50°   Wind: 10mph
Humidity: 82%   Direction: 200°SSW
Pressure: 29.71"   Gusts: NA
Location:  57.05°N, 2.13°W
Report Text: EGPD 231050Z 20009KT 170V230 9999 SCT016 13/10 Q1006 NOSIG
Loading
Personal Weather Stations






























Interactive Weather Map
Tropical Storm Tracking
New forecast layout! Learn more

10-Day Weather Forecast

Advertisements
Track Severe Weather on mobile